Terminal Aerodrome Forecast
Issued by NWS Charleston, WV

Current Version | Previous Version | Graphics & Text | Print | Product List | Glossary On
Versions: 1 2 3 4 5 6 7 8 9 10 11 12 13 14 15 16 17 18 19 20 21 22
000
FTUS41 KRLX 170300 AAA
TAFEKN
TAF AMD
KEKN 170307Z 1703/1724 27010KT P6SM OVC015
     FM170600 27008KT 5SM -DZ BR OVC012
     FM171400 27010KT P6SM OVC015
     FM171500 28013G22KT P6SM OVC010
     FM171600 28013G22KT P6SM OVC015=

USA.gov is the U.S. government's official web portal to all federal, state and local government web resources and services.